sensor_id;sensor_type;location;lat;lon;timestamp;pressure;altitude;pressure_sealevel;temperature;humidity
49813;BME280;35706;52.100;5.056;2023-02-01T00:00:48;102021.97;;;5.37;83.83
49813;BME280;35706;52.100;5.056;2023-02-01T00:01:49;102022.38;;;5.29;84.14
49813;BME280;35706;52.100;5.056;2023-02-01T00:02:49;102019.75;;;5.29;84.37
49813;BME280;35706;52.100;5.056;2023-02-01T00:03:49;102020.53;;;5.32;84.45
49813;BME280;35706;52.100;5.056;2023-02-01T00:04:50;102018.81;;;5.30;84.61
49813;BME280;35706;52.100;5.056;2023-02-01T00:06:00;102022.09;;;5.36;84.51
49813;BME280;35706;52.100;5.056;2023-02-01T00:07:00;102022.84;;;5.38;84.56
49813;BME280;35706;52.100;5.056;2023-02-01T00:08:01;102017.53;;;5.39;84.35
49813;BME280;35706;52.100;5.056;2023-02-01T00:09:02;102021.47;;;5.48;84.29
49813;BME280;35706;52.100;5.056;2023-02-01T00:10:03;102016.34;;;5.46;84.44
49813;BME280;35706;52.100;5.056;2023-02-01T00:11:09;102017.03;;;5.50;84.31
49813;BME280;35706;52.100;5.056;2023-02-01T00:12:10;102013.88;;;5.61;84.04
49813;BME280;35706;52.100;5.056;2023-02-01T00:13:10;102011.97;;;5.64;83.90
49813;BME280;35706;52.100;5.056;2023-02-01T00:14:11;102018.66;;;5.70;83.76
49813;BME280;35706;52.100;5.056;2023-02-01T00:15:11;102022.88;;;5.72;83.67
49813;BME280;35706;52.100;5.056;2023-02-01T00:16:18;102019.97;;;5.79;83.24
49813;BME280;35706;52.100;5.056;2023-02-01T00:17:18;102009.31;;;5.83;82.95
49813;BME280;35706;52.100;5.056;2023-02-01T00:18:18;102026.25;;;5.92;82.69
49813;BME280;35706;52.100;5.056;2023-02-01T00:19:19;102015.06;;;5.90;82.58
49813;BME280;35706;52.100;5.056;2023-02-01T00:20:19;102020.84;;;5.97;82.45
49813;BME280;35706;52.100;5.056;2023-02-01T00:21:20;102019.88;;;5.99;82.13
49813;BME280;35706;52.100;5.056;2023-02-01T00:22:20;102022.38;;;6.01;82.05
49813;BME280;35706;52.100;5.056;2023-02-01T00:23:24;102018.84;;;6.02;81.91
49813;BME280;35706;52.100;5.056;2023-02-01T00:24:24;102014.88;;;6.12;81.53
49813;BME280;35706;52.100;5.056;2023-02-01T00:25:24;102008.69;;;6.13;81.31
49813;BME280;35706;52.100;5.056;2023-02-01T00:26:36;102009.47;;;6.15;80.79
49813;BME280;35706;52.100;5.056;2023-02-01T00:27:36;102014.56;;;6.18;80.76
49813;BME280;35706;52.100;5.056;2023-02-01T00:28:37;102023.91;;;6.22;80.53
49813;BME280;35706;52.100;5.056;2023-02-01T00:29:37;102017.69;;;6.25;80.52
49813;BME280;35706;52.100;5.056;2023-02-01T00:30:37;102011.53;;;6.26;80.30
49813;BME280;35706;52.100;5.056;2023-02-01T00:31:38;102011.53;;;6.26;80.19
49813;BME280;35706;52.100;5.056;2023-02-01T00:32:38;102016.69;;;6.27;80.24
49813;BME280;35706;52.100;5.056;2023-02-01T00:33:39;102007.91;;;6.28;80.12
49813;BME280;35706;52.100;5.056;2023-02-01T00:34:39;102003.38;;;6.32;79.87
49813;BME280;35706;52.100;5.056;2023-02-01T00:35:39;102007.69;;;6.33;79.83
49813;BME280;35706;52.100;5.056;2023-02-01T00:36:41;102005.16;;;6.31;79.81
49813;BME280;35706;52.100;5.056;2023-02-01T00:37:41;102015.53;;;6.33;79.61
49813;BME280;35706;52.100;5.056;2023-02-01T00:38:42;102019.75;;;6.36;79.62
49813;BME280;35706;52.100;5.056;2023-02-01T00:39:42;102025.03;;;6.34;79.80
49813;BME280;35706;52.100;5.056;2023-02-01T00:40:43;102018.81;;;6.37;79.59
49813;BME280;35706;52.100;5.056;2023-02-01T00:41:43;102012.75;;;6.36;79.47
49813;BME280;35706;52.100;5.056;2023-02-01T00:42:43;102017.97;;;6.36;79.45
49813;BME280;35706;52.100;5.056;2023-02-01T00:43:45;102015.53;;;6.33;79.62
49813;BME280;35706;52.100;5.056;2023-02-01T00:44:45;102018.97;;;6.34;79.58
49813;BME280;35706;52.100;5.056;2023-02-01T00:45:47;102008.59;;;6.32;79.73
49813;BME280;35706;52.100;5.056;2023-02-01T00:46:47;102019.03;;;6.32;79.83
49813;BME280;35706;52.100;5.056;2023-02-01T00:47:47;102010.44;;;6.30;79.80
49813;BME280;35706;52.100;5.056;2023-02-01T00:48:48;102012.97;;;6.31;79.76
49813;BME280;35706;52.100;5.056;2023-02-01T00:49:48;102003.38;;;6.32;79.57
49813;BME280;35706;52.100;5.056;2023-02-01T00:50:49;102005.28;;;6.28;79.80
49813;BME280;35706;52.100;5.056;2023-02-01T00:51:49;102018.28;;;6.30;79.67
49813;BME280;35706;52.100;5.056;2023-02-01T00:52:49;102020.13;;;6.28;79.84
49813;BME280;35706;52.100;5.056;2023-02-01T00:53:50;102017.59;;;6.26;79.72
49813;BME280;35706;52.100;5.056;2023-02-01T00:54:50;102011.53;;;6.26;79.61
49813;BME280;35706;52.100;5.056;2023-02-01T00:55:51;102009.75;;;6.26;79.24
49813;BME280;35706;52.100;5.056;2023-02-01T00:56:51;102007.91;;;6.28;79.24
49813;BME280;35706;52.100;5.056;2023-02-01T00:57:51;102005.28;;;6.28;79.21
49813;BME280;35706;52.100;5.056;2023-02-01T00:58:52;101999.22;;;6.28;78.88
49813;BME280;35706;52.100;5.056;2023-02-01T00:59:52;101995.78;;;6.27;78.84
49813;BME280;35706;52.100;5.056;2023-02-01T01:01:03;102000.94;;;6.29;78.97
49813;BME280;35706;52.100;5.056;2023-02-01T01:02:03;102006.22;;;6.27;78.82
49813;BME280;35706;52.100;5.056;2023-02-01T01:03:04;102000.06;;;6.28;78.70
49813;BME280;35706;52.100;5.056;2023-02-01T01:04:17;102005.28;;;6.28;78.88
49813;BME280;35706;52.100;5.056;2023-02-01T01:05:17;101994.72;;;6.31;78.38
49813;BME280;35706;52.100;5.056;2023-02-01T01:06:22;102005.28;;;6.28;78.55
49813;BME280;35706;52.100;5.056;2023-02-01T01:07:23;102002.69;;;6.28;78.44
49813;BME280;35706;52.100;5.056;2023-02-01T01:08:23;102008.00;;;6.27;78.46
49813;BME280;35706;52.100;5.056;2023-02-01T01:09:23;101996.81;;;6.25;78.71
49813;BME280;35706;52.100;5.056;2023-02-01T01:10:24;101999.41;;;6.25;78.58
49813;BME280;35706;52.100;5.056;2023-02-01T01:11:27;101996.81;;;6.25;78.39
49813;BME280;35706;52.100;5.056;2023-02-01T01:12:27;101991.72;;;6.22;78.49
49813;BME280;35706;52.100;5.056;2023-02-01T01:13:28;101996.03;;;6.23;78.63
49813;BME280;35706;52.100;5.056;2023-02-01T01:14:29;101999.41;;;6.25;78.46
49813;BME280;35706;52.100;5.056;2023-02-01T01:15:30;102006.31;;;6.26;78.35
49813;BME280;35706;52.100;5.056;2023-02-01T01:16:30;102007.31;;;6.23;78.49
49813;BME280;35706;52.100;5.056;2023-02-01T01:17:31;101996.56;;;6.29;78.16
49813;BME280;35706;52.100;5.056;2023-02-01T01:18:32;102006.16;;;6.29;78.13
49813;BME280;35706;52.100;5.056;2023-02-01T01:19:33;102003.44;;;6.30;78.01
49813;BME280;35706;52.100;5.056;2023-02-01T01:20:35;102004.31;;;6.31;78.01
49813;BME280;35706;52.100;5.056;2023-02-01T01:21:36;101993.88;;;6.31;78.09
49813;BME280;35706;52.100;5.056;2023-02-01T01:22:36;101990.56;;;6.27;78.18
49813;BME280;35706;52.100;5.056;2023-02-01T01:23:39;101993.09;;;6.29;78.19
49813;BME280;35706;52.100;5.056;2023-02-01T01:24:40;101997.47;;;6.28;78.34
49813;BME280;35706;52.100;5.056;2023-02-01T01:25:40;101994.00;;;6.28;78.32
49813;BME280;35706;52.100;5.056;2023-02-01T01:26:41;101999.22;;;6.28;78.28
49813;BME280;35706;52.100;5.056;2023-02-01T01:27:41;101999.31;;;6.26;78.14
49813;BME280;35706;52.100;5.056;2023-02-01T01:28:42;102007.84;;;6.30;78.34
49813;BME280;35706;52.100;5.056;2023-02-01T01:29:42;101993.88;;;6.31;78.01
49813;BME280;35706;52.100;5.056;2023-02-01T01:30:43;101994.72;;;6.31;78.11
49813;BME280;35706;52.100;5.056;2023-02-01T01:31:43;102003.44;;;6.30;78.19
49813;BME280;35706;52.100;5.056;2023-02-01T01:32:43;101999.84;;;6.33;78.19
49813;BME280;35706;52.100;5.056;2023-02-01T01:33:47;102005.22;;;6.30;78.36
49813;BME280;35706;52.100;5.056;2023-02-01T01:34:47;102003.56;;;6.29;78.33
49813;BME280;35706;52.100;5.056;2023-02-01T01:35:48;101996.38;;;6.32;78.30
49813;BME280;35706;52.100;5.056;2023-02-01T01:36:48;101993.88;;;6.31;78.41
49813;BME280;35706;52.100;5.056;2023-02-01T01:37:48;102001.84;;;6.28;78.51
49813;BME280;35706;52.100;5.056;2023-02-01T01:38:48;102000.69;;;6.34;78.41
49813;BME280;35706;52.100;5.056;2023-02-01T01:39:49;102001.53;;;6.34;78.34
49813;BME280;35706;52.100;5.056;2023-02-01T01:40:49;102005.84;;;6.35;78.27
49813;BME280;35706;52.100;5.056;2023-02-01T01:41:49;101994.63;;;6.33;78.65
49813;BME280;35706;52.100;5.056;2023-02-01T01:42:50;102000.63;;;6.35;78.40
49813;BME280;35706;52.100;5.056;2023-02-01T01:43:55;102000.63;;;6.35;78.55
49813;BME280;35706;52.100;5.056;2023-02-01T01:46:04;101998.91;;;6.34;78.71
49813;BME280;35706;52.100;5.056;2023-02-01T01:47:04;101993.63;;;6.36;78.83
49813;BME280;35706;52.100;5.056;2023-02-01T01:49:17;101996.06;;;6.39;79.11
49813;BME280;35706;52.100;5.056;2023-02-01T01:50:21;101996.16;;;6.37;79.25
49813;BME280;35706;52.100;5.056;2023-02-01T01:51:25;101992.44;;;6.41;79.15
49813;BME280;35706;52.100;5.056;2023-02-01T01:52:28;101987.22;;;6.41;79.26
49813;BME280;35706;52.100;5.056;2023-02-01T01:53:34;101979.38;;;6.41;79.48
49813;BME280;35706;52.100;5.056;2023-02-01T01:54:38;101991.59;;;6.41;79.63
49813;BME280;35706;52.100;5.056;2023-02-01T01:55:42;101987.91;;;6.45;79.50
49813;BME280;35706;52.100;5.056;2023-02-01T01:56:47;101980.06;;;6.45;79.59
49813;BME280;35706;52.100;5.056;2023-02-01T01:58:05;101989.50;;;6.47;79.53
49813;BME280;35706;52.100;5.056;2023-02-01T01:59:07;101986.81;;;6.49;79.70
49813;BME280;35706;52.100;5.056;2023-02-01T02:00:13;101991.22;;;6.48;79.79
49813;BME280;35706;52.100;5.056;2023-02-01T02:01:17;101979.06;;;6.47;80.00
49813;BME280;35706;52.100;5.056;2023-02-01T02:02:18;101982.44;;;6.49;80.01
49813;BME280;35706;52.100;5.056;2023-02-01T02:03:26;101977.31;;;6.48;79.95
49813;BME280;35706;52.100;5.056;2023-02-01T02:04:27;101973.69;;;6.50;80.12
49813;BME280;35706;52.100;5.056;2023-02-01T02:05:27;101976.31;;;6.50;80.19
49813;BME280;35706;52.100;5.056;2023-02-01T02:06:51;101982.22;;;6.54;80.17
49813;BME280;35706;52.100;5.056;2023-02-01T02:07:58;101970.75;;;6.57;80.14
49813;BME280;35706;52.100;5.056;2023-02-01T02:08:59;101978.66;;;6.55;80.44
49813;BME280;35706;52.100;5.056;2023-02-01T02:10:00;101981.97;;;6.59;80.31
49813;BME280;35706;52.100;5.056;2023-02-01T02:11:02;101976.72;;;6.59;80.32
49813;BME280;35706;52.100;5.056;2023-02-01T02:12:02;101966.09;;;6.62;80.30
49813;BME280;35706;52.100;5.056;2023-02-01T02:13:02;101970.81;;;6.55;80.59
49813;BME280;35706;52.100;5.056;2023-02-01T02:14:03;101968.97;;;6.57;80.70
49813;BME280;35706;52.100;5.056;2023-02-01T02:15:07;101966.19;;;6.60;80.69
49813;BME280;35706;52.100;5.056;2023-02-01T02:17:36;101961.97;;;6.58;80.98
49813;BME280;35706;52.100;5.056;2023-02-01T02:19:15;101965.41;;;6.58;81.14
49813;BME280;35706;52.100;5.056;2023-02-01T02:21:56;101955.06;;;6.57;81.31
49813;BME280;35706;52.100;5.056;2023-02-01T02:25:55;101948.75;;;6.61;80.80
49813;BME280;35706;52.100;5.056;2023-02-01T02:27:13;101938.31;;;6.61;81.21
49813;BME280;35706;52.100;5.056;2023-02-01T02:34:50;101940.25;;;6.57;81.04
49813;BME280;35706;52.100;5.056;2023-02-01T02:37:22;101933.16;;;6.59;80.56
49813;BME280;35706;52.100;5.056;2023-02-01T02:38:30;101928.50;;;6.64;80.33
49813;BME280;35706;52.100;5.056;2023-02-01T02:42:04;101925.06;;;6.64;80.40
49813;BME280;35706;52.100;5.056;2023-02-01T02:43:34;101938.13;;;6.64;80.32
49813;BME280;35706;52.100;5.056;2023-02-01T02:45:13;101942.44;;;6.65;79.98
49813;BME280;35706;52.100;5.056;2023-02-01T02:46:47;101931.38;;;6.60;80.46
49813;BME280;35706;52.100;5.056;2023-02-01T02:48:17;101958.25;;;6.62;80.45
49813;BME280;35706;52.100;5.056;2023-02-01T02:49:49;101948.91;;;6.58;80.65
49813;BME280;35706;52.100;5.056;2023-02-01T02:51:32;101950.59;;;6.59;80.50
49813;BME280;35706;52.100;5.056;2023-02-01T02:53:10;101946.16;;;6.61;80.39
49813;BME280;35706;52.100;5.056;2023-02-01T02:54:34;101950.44;;;6.62;80.20
49813;BME280;35706;52.100;5.056;2023-02-01T02:55:50;101935.69;;;6.61;80.54
49813;BME280;35706;52.100;5.056;2023-02-01T02:56:52;101928.63;;;6.63;80.48
49813;BME280;35706;52.100;5.056;2023-02-01T02:58:13;101934.84;;;6.60;80.36
49813;BME280;35706;52.100;5.056;2023-02-01T02:59:33;101918.16;;;6.63;80.17
49813;BME280;35706;52.100;5.056;2023-02-01T03:00:54;101902.50;;;6.63;80.27
49813;BME280;35706;52.100;5.056;2023-02-01T03:02:14;101897.50;;;6.58;80.41
49813;BME280;35706;52.100;5.056;2023-02-01T03:03:37;101904.50;;;6.58;80.34
49813;BME280;35706;52.100;5.056;2023-02-01T03:04:56;101917.56;;;6.58;80.42
49813;BME280;35706;52.100;5.056;2023-02-01T03:05:57;101921.69;;;6.62;80.22
49813;BME280;35706;52.100;5.056;2023-02-01T03:06:57;101918.25;;;6.61;80.22
49813;BME280;35706;52.100;5.056;2023-02-01T03:08:05;101898.19;;;6.62;80.03
49813;BME280;35706;52.100;5.056;2023-02-01T03:09:18;101906.97;;;6.61;80.01
49813;BME280;35706;52.100;5.056;2023-02-01T03:10:32;101913.94;;;6.60;80.04
49813;BME280;35706;52.100;5.056;2023-02-01T03:11:35;101919.25;;;6.59;79.84
49813;BME280;35706;52.100;5.056;2023-02-01T03:13:02;101918.41;;;6.58;79.84
49813;BME280;35706;52.100;5.056;2023-02-01T03:14:04;101908.81;;;6.59;79.57
49813;BME280;35706;52.100;5.056;2023-02-01T03:15:10;101914.03;;;6.59;79.71
49813;BME280;35706;52.100;5.056;2023-02-01T03:16:29;101910.34;;;6.63;79.37
49813;BME280;35706;52.100;5.056;2023-02-01T03:17:35;101909.38;;;6.64;79.62
49813;BME280;35706;52.100;5.056;2023-02-01T03:18:52;101905.34;;;6.58;79.78
49813;BME280;35706;52.100;5.056;2023-02-01T03:19:55;101902.00;;;6.56;79.81
49813;BME280;35706;52.100;5.056;2023-02-01T03:21:01;101909.72;;;6.58;79.88
49813;BME280;35706;52.100;5.056;2023-02-01T03:22:06;101910.66;;;6.57;79.98
49813;BME280;35706;52.100;5.056;2023-02-01T03:23:09;101896.78;;;6.56;80.05
49813;BME280;35706;52.100;5.056;2023-02-01T03:24:30;101901.06;;;6.57;79.91
49813;BME280;35706;52.100;5.056;2023-02-01T03:25:35;101909.84;;;6.56;80.14
49813;BME280;35706;52.100;5.056;2023-02-01T03:26:38;101901.38;;;6.51;80.11
49813;BME280;35706;52.100;5.056;2023-02-01T03:28:59;101904.69;;;6.55;80.22
49813;BME280;35706;52.100;5.056;2023-02-01T03:31:22;101907.38;;;6.53;80.27
49813;BME280;35706;52.100;5.056;2023-02-01T03:32:23;101903.91;;;6.52;80.64
49813;BME280;35706;52.100;5.056;2023-02-01T03:33:25;101905.78;;;6.50;80.74
49813;BME280;35706;52.100;5.056;2023-02-01T03:34:26;101908.47;;;6.49;80.85
49813;BME280;35706;52.100;5.056;2023-02-01T03:36:48;101920.06;;;6.43;81.24
49813;BME280;35706;52.100;5.056;2023-02-01T03:37:50;101929.69;;;6.43;81.55
49813;BME280;35706;52.100;5.056;2023-02-01T03:39:09;101913.09;;;6.44;81.51
49813;BME280;35706;52.100;5.056;2023-02-01T03:40:15;101920.94;;;6.44;81.54
49813;BME280;35706;52.100;5.056;2023-02-01T03:42:42;101912.66;;;6.36;81.95
49813;BME280;35706;52.100;5.056;2023-02-01T03:43:55;101920.56;;;6.34;82.12
49813;BME280;35706;52.100;5.056;2023-02-01T03:44:58;101917.06;;;6.35;82.13
49813;BME280;35706;52.100;5.056;2023-02-01T03:46:09;101902.31;;;6.34;82.26
49813;BME280;35706;52.100;5.056;2023-02-01T03:47:16;101911.06;;;6.33;82.19
49813;BME280;35706;52.100;5.056;2023-02-01T03:48:20;101908.47;;;6.33;82.32
49813;BME280;35706;52.100;5.056;2023-02-01T03:49:27;101912.94;;;6.31;82.28
49813;BME280;35706;52.100;5.056;2023-02-01T03:50:29;101914.59;;;6.32;82.41
49813;BME280;35706;52.100;5.056;2023-02-01T03:51:32;101916.28;;;6.33;82.33
49813;BME280;35706;52.100;5.056;2023-02-01T03:52:39;101929.19;;;6.36;82.04
49813;BME280;35706;52.100;5.056;2023-02-01T03:53:43;101910.91;;;6.36;81.99
49813;BME280;35706;52.100;5.056;2023-02-01T03:54:46;101929.25;;;6.35;81.94
49813;BME280;35706;52.100;5.056;2023-02-01T03:55:47;101913.50;;;6.36;81.76
49813;BME280;35706;52.100;5.056;2023-02-01T03:56:50;101922.09;;;6.38;81.55
49813;BME280;35706;52.100;5.056;2023-02-01T03:58:00;101916.03;;;6.38;81.44
49813;BME280;35706;52.100;5.056;2023-02-01T03:59:01;101929.88;;;6.40;81.49
49813;BME280;35706;52.100;5.056;2023-02-01T04:00:09;101922.78;;;6.42;80.99
49813;BME280;35706;52.100;5.056;2023-02-01T04:01:10;101919.25;;;6.43;80.97
49813;BME280;35706;52.100;5.056;2023-02-01T04:02:10;101924.47;;;6.43;81.02
49813;BME280;35706;52.100;5.056;2023-02-01T04:03:11;101932.38;;;6.41;80.88
49813;BME280;35706;52.100;5.056;2023-02-01T04:04:11;101933.88;;;6.45;80.92
49813;BME280;35706;52.100;5.056;2023-02-01T04:05:20;101921.19;;;6.39;81.09
49813;BME280;35706;52.100;5.056;2023-02-01T04:06:21;101934.06;;;6.42;80.80
49813;BME280;35706;52.100;5.056;2023-02-01T04:07:21;101913.00;;;6.45;80.40
49813;BME280;35706;52.100;5.056;2023-02-01T04:08:26;101912.94;;;6.47;80.48
49813;BME280;35706;52.100;5.056;2023-02-01T04:09:27;101905.16;;;6.45;80.85
49813;BME280;35706;52.100;5.056;2023-02-01T04:10:28;101912.16;;;6.45;80.63
49813;BME280;35706;52.100;5.056;2023-02-01T04:11:28;101910.31;;;6.47;80.56
49813;BME280;35706;52.100;5.056;2023-02-01T04:12:29;101917.13;;;6.49;80.31
49813;BME280;35706;52.100;5.056;2023-02-01T04:13:29;101918.84;;;6.50;80.15
49813;BME280;35706;52.100;5.056;2023-02-01T04:14:29;101920.63;;;6.50;80.28
49813;BME280;35706;52.100;5.056;2023-02-01T04:15:32;101904.75;;;6.53;79.39
49813;BME280;35706;52.100;5.056;2023-02-01T04:16:34;101913.28;;;6.57;79.72
49813;BME280;35706;52.100;5.056;2023-02-01T04:17:34;101925.56;;;6.55;79.82
49813;BME280;35706;52.100;5.056;2023-02-01T04:18:35;101922.03;;;6.56;79.89
49813;BME280;35706;52.100;5.056;2023-02-01T04:19:35;101923.03;;;6.53;79.98
49813;BME280;35706;52.100;5.056;2023-02-01T04:20:35;101926.50;;;6.53;79.75
49813;BME280;35706;52.100;5.056;2023-02-01T04:21:36;101919.34;;;6.57;79.79
49813;BME280;35706;52.100;5.056;2023-02-01T04:22:36;101929.03;;;6.55;79.93
49813;BME280;35706;52.100;5.056;2023-02-01T04:23:36;101915.38;;;6.50;80.06
49813;BME280;35706;52.100;5.056;2023-02-01T04:24:37;101929.09;;;6.53;80.18
49813;BME280;35706;52.100;5.056;2023-02-01T04:25:41;101929.34;;;6.49;80.35
49813;BME280;35706;52.100;5.056;2023-02-01T04:26:41;101918.06;;;6.48;80.51
49813;BME280;35706;52.100;5.056;2023-02-01T04:27:41;101918.06;;;6.48;80.38
49813;BME280;35706;52.100;5.056;2023-02-01T04:28:42;101922.28;;;6.51;80.35
49813;BME280;35706;52.100;5.056;2023-02-01T04:29:42;101911.00;;;6.50;80.47
49813;BME280;35706;52.100;5.056;2023-02-01T04:30:43;101911.16;;;6.47;80.48
49813;BME280;35706;52.100;5.056;2023-02-01T04:31:45;101922.34;;;6.49;80.44
49813;BME280;35706;52.100;5.056;2023-02-01T04:32:46;101913.53;;;6.52;80.42
49813;BME280;35706;52.100;5.056;2023-02-01T04:33:46;101910.16;;;6.50;80.61
49813;BME280;35706;52.100;5.056;2023-02-01T04:34:47;101912.78;;;6.50;80.72
49813;BME280;35706;52.100;5.056;2023-02-01T04:35:47;101907.56;;;6.50;80.67
49813;BME280;35706;52.100;5.056;2023-02-01T04:36:48;101907.63;;;6.48;80.57
49813;BME280;35706;52.100;5.056;2023-02-01T04:37:48;101921.44;;;6.50;80.79
49813;BME280;35706;52.100;5.056;2023-02-01T04:38:49;101918.06;;;6.48;80.93
49813;BME280;35706;52.100;5.056;2023-02-01T04:39:50;101914.53;;;6.49;80.86
49813;BME280;35706;52.100;5.056;2023-02-01T04:40:50;101912.16;;;6.45;81.09
49813;BME280;35706;52.100;5.056;2023-02-01T04:41:51;101904.31;;;6.45;81.11
49813;BME280;35706;52.100;5.056;2023-02-01T04:42:52;101916.56;;;6.44;81.12
49813;BME280;35706;52.100;5.056;2023-02-01T04:43:52;101921.00;;;6.42;81.31
49813;BME280;35706;52.100;5.056;2023-02-01T04:44:58;101911.41;;;6.43;81.00
49813;BME280;35706;52.100;5.056;2023-02-01T04:45:58;101909.63;;;6.43;80.84
49813;BME280;35706;52.100;5.056;2023-02-01T04:46:59;101913.34;;;6.39;81.29
49813;BME280;35706;52.100;5.056;2023-02-01T04:47:59;101906.44;;;6.38;81.16
49813;BME280;35706;52.100;5.056;2023-02-01T04:49:04;101916.13;;;6.36;81.28
49813;BME280;35706;52.100;5.056;2023-02-01T04:50:05;101902.91;;;6.39;81.18
49813;BME280;35706;52.100;5.056;2023-02-01T04:51:06;101912.41;;;6.40;81.06
49813;BME280;35706;52.100;5.056;2023-02-01T04:52:07;101913.34;;;6.39;80.99
49813;BME280;35706;52.100;5.056;2023-02-01T04:53:07;101909.97;;;6.37;80.97
49813;BME280;35706;52.100;5.056;2023-02-01T04:54:08;101907.28;;;6.39;80.94
49813;BME280;35706;52.100;5.056;2023-02-01T04:55:08;101906.75;;;6.32;81.25
49813;BME280;35706;52.100;5.056;2023-02-01T04:56:09;101905.75;;;6.35;80.89
49813;BME280;35706;52.100;5.056;2023-02-01T04:57:09;101912.81;;;6.32;81.33
49813;BME280;35706;52.100;5.056;2023-02-01T04:58:10;101911.28;;;6.28;81.13
49813;BME280;35706;52.100;5.056;2023-02-01T04:59:11;101919.06;;;6.30;81.32
49813;BME280;35706;52.100;5.056;2023-02-01T05:00:12;101909.63;;;6.27;81.26
49813;BME280;35706;52.100;5.056;2023-02-01T05:01:13;101902.56;;;6.29;81.12
49813;BME280;35706;52.100;5.056;2023-02-01T05:02:13;101900.00;;;6.28;81.11
49813;BME280;35706;52.100;5.056;2023-02-01T05:03:13;101897.47;;;6.26;81.33
49813;BME280;35706;52.100;5.056;2023-02-01T05:04:14;101905.41;;;6.25;81.42
49813;BME280;35706;52.100;5.056;2023-02-01T05:05:14;101901.22;;;6.22;81.74
49813;BME280;35706;52.100;5.056;2023-02-01T05:06:14;101907.41;;;6.20;81.70
49813;BME280;35706;52.100;5.056;2023-02-01T05:07:15;101898.66;;;6.21;81.52
49813;BME280;35706;52.100;5.056;2023-02-01T05:08:15;101897.72;;;6.22;81.52
49813;BME280;35706;52.100;5.056;2023-02-01T05:09:15;101889.91;;;6.22;81.56
49813;BME280;35706;52.100;5.056;2023-02-01T05:10:16;101892.69;;;6.19;81.75
49813;BME280;35706;52.100;5.056;2023-02-01T05:11:16;101886.53;;;6.20;81.82
49813;BME280;35706;52.100;5.056;2023-02-01T05:12:35;101881.31;;;6.20;81.89
49813;BME280;35706;52.100;5.056;2023-02-01T05:14:11;101900.34;;;6.22;81.82
49813;BME280;35706;52.100;5.056;2023-02-01T05:15:11;101895.22;;;6.20;81.86
49813;BME280;35706;52.100;5.056;2023-02-01T05:16:12;101897.06;;;6.18;82.00
49813;BME280;35706;52.100;5.056;2023-02-01T05:17:12;101897.06;;;6.18;82.13
49813;BME280;35706;52.100;5.056;2023-02-01T05:18:12;101893.59;;;6.18;82.15
49813;BME280;35706;52.100;5.056;2023-02-01T05:19:13;101886.53;;;6.20;82.14
49813;BME280;35706;52.100;5.056;2023-02-01T05:20:13;101902.19;;;6.20;82.04
49813;BME280;35706;52.100;5.056;2023-02-01T05:21:14;101895.28;;;6.19;82.15
49813;BME280;35706;52.100;5.056;2023-02-01T05:22:14;101895.38;;;6.17;82.17
49813;BME280;35706;52.100;5.056;2023-02-01T05:23:14;101909.03;;;6.22;82.02
49813;BME280;35706;52.100;5.056;2023-02-01T05:24:15;101917.78;;;6.21;82.06
49813;BME280;35706;52.100;5.056;2023-02-01T05:25:20;101918.72;;;6.20;82.15
49813;BME280;35706;52.100;5.056;2023-02-01T05:26:20;101923.19;;;6.18;82.15
49813;BME280;35706;52.100;5.056;2023-02-01T05:27:21;101913.56;;;6.19;82.21
49813;BME280;35706;52.100;5.056;2023-02-01T05:28:21;101918.94;;;6.16;82.30
49813;BME280;35706;52.100;5.056;2023-02-01T05:29:21;101918.03;;;6.17;82.31
49813;BME280;35706;52.100;5.056;2023-02-01T05:30:22;101925.88;;;6.17;82.58
49813;BME280;35706;52.100;5.056;2023-02-01T05:31:22;101928.78;;;6.10;82.72
49813;BME280;35706;52.100;5.056;2023-02-01T05:32:23;101933.84;;;6.14;82.99
49813;BME280;35706;52.100;5.056;2023-02-01T05:33:23;101922.56;;;6.13;82.74
49813;BME280;35706;52.100;5.056;2023-02-01T05:34:23;101924.09;;;6.17;82.76
49813;BME280;35706;52.100;5.056;2023-02-01T05:35:24;101922.63;;;6.11;83.03
49813;BME280;35706;52.100;5.056;2023-02-01T05:36:24;101934.59;;;6.16;82.90
49813;BME280;35706;52.100;5.056;2023-02-01T05:37:24;101932.00;;;6.16;82.96
49813;BME280;35706;52.100;5.056;2023-02-01T05:38:25;101943.31;;;6.16;83.00
49813;BME280;35706;52.100;5.056;2023-02-01T05:39:25;101931.00;;;6.18;83.10
49813;BME280;35706;52.100;5.056;2023-02-01T05:40:25;101937.22;;;6.16;83.14
49813;BME280;35706;52.100;5.056;2023-02-01T05:41:25;101932.09;;;6.14;83.12
49813;BME280;35706;52.100;5.056;2023-02-01T05:42:26;101937.22;;;6.16;83.14
49813;BME280;35706;52.100;5.056;2023-02-01T05:43:26;101933.69;;;6.17;83.03
49813;BME280;35706;52.100;5.056;2023-02-01T05:44:26;101932.94;;;6.15;83.44
49813;BME280;35706;52.100;5.056;2023-02-01T05:45:27;101937.22;;;6.16;83.32
49813;BME280;35706;52.100;5.056;2023-02-01T05:46:27;101926.00;;;6.14;83.70
49813;BME280;35706;52.100;5.056;2023-02-01T05:47:27;101938.22;;;6.13;83.51
49813;BME280;35706;52.100;5.056;2023-02-01T05:48:28;101927.72;;;6.15;83.44
49813;BME280;35706;52.100;5.056;2023-02-01T05:49:28;101930.31;;;6.15;83.44
49813;BME280;35706;52.100;5.056;2023-02-01T05:50:28;101932.94;;;6.15;83.59
49813;BME280;35706;52.100;5.056;2023-02-01T05:51:29;101922.56;;;6.13;83.70
49813;BME280;35706;52.100;5.056;2023-02-01T05:52:29;101919.88;;;6.15;83.54
49813;BME280;35706;52.100;5.056;2023-02-01T05:53:30;101923.41;;;6.14;83.64
49813;BME280;35706;52.100;5.056;2023-02-01T05:54:30;101921.53;;;6.16;83.60
49813;BME280;35706;52.100;5.056;2023-02-01T05:55:31;101927.72;;;6.15;83.68
49813;BME280;35706;52.100;5.056;2023-02-01T05:56:32;101923.31;;;6.15;83.56
49813;BME280;35706;52.100;5.056;2023-02-01T05:57:32;101908.59;;;6.14;83.88
49813;BME280;35706;52.100;5.056;2023-02-01T05:58:32;101913.81;;;6.14;83.71
49813;BME280;35706;52.100;5.056;2023-02-01T05:59:33;101913.88;;;6.13;83.85
49813;BME280;35706;52.100;5.056;2023-02-01T06:00:33;101921.78;;;6.11;83.98
49813;BME280;35706;52.100;5.056;2023-02-01T06:01:33;101913.97;;;6.11;84.06